SCRIPT_RESULTS Banner
METAR for YSHR

by Dr. Günther Eichhorn

METAR for YSHR provided by aerobaticsweb.org
Current time: Wednesday, 5 Oct, 2022, 05:54 UTC
(This may take a minute, please be patient)


No METAR for YSHR, get METAR for YBHM, 12 nm southeast of YSHR
The most recent METAR observation from YBHM, 12 nm southeast of YSHR in our system was generated at
2022/10/05 05:30
The observation is:
2022/10/05 05:30
YBHM 050530Z AUTO 11018KT 9999 // BKN049 OVC054 24/19 Q1016

24 Hour Summary

Time (UTC) Temperature
°C (°F)
Dew Point
°C (°F)
Pressure
Inches (hPa)
Wind
mph (km/h)
Weather
00:00 5 October 24 (75 ) 19 (66 ) 30.06 (1018) ESE 20 (32)
01:00 5 October 25 (77 ) 20 (68 ) 30.03 (1017) ESE 18 (29)
02:00 5 October 25 (77 ) 20 (68 ) 30.03 (1017) ESE 18 (29)
03:00 5 October 24 (75 ) 19 (66 ) 30.00 (1016) ESE 22 (35)
04:00 5 October 24 (75 ) 19 (66 ) 30.00 (1016) ESE 21 (34)
05:00 5 October 24 (75 ) 19 (66 ) 30.00 (1016) ESE 21 (34)
06:00 4 October 23 (73 ) 18 (64 ) 30.03 (1017) ESE 22 (35)
07:00 4 October 23 (73 ) 18 (64 ) 30.03 (1017) ESE 22 (35)
08:00 4 October 23 (73 ) 17 (62 ) 30.03 (1017) ESE 20 (32)
09:00 4 October 23 (73 ) 18 (64 ) 30.03 (1017) ESE 22 (35)
10:00 4 October 23 (73 ) 18 (64 ) 30.03 (1017) ESE 24 (39)
11:00 4 October 23 (73 ) 18 (64 ) 30.03 (1017) E 25 (40)
12:00 4 October 23 (73 ) 19 (66 ) 30.03 (1017) ESE 20 (32)
13:00 4 October 23 (73 ) 19 (66 ) 30.03 (1017) ESE 21 (34)
14:00 4 October 22 (71 ) 18 (64 ) 30.03 (1017) ESE 20 (32)
15:00 4 October 23 (73 ) 19 (66 ) 30.00 (1016) ESE 20 (32)
16:00 4 October 23 (73 ) 19 (66 ) 30.00 (1016) SE 20 (32)
17:00 4 October 23 (73 ) 19 (66 ) 30.00 (1016) SE 20 (32)
18:00 4 October 22 (71 ) 19 (66 ) 30.00 (1016) ESE 21 (34)
19:00 4 October 22 (71 ) 19 (66 ) 30.00 (1016) ESE 21 (34)
20:00 4 October 23 (73 ) 19 (66 ) 30.03 (1017) ESE 23 (37)
21:00 4 October 24 (75 ) 20 (68 ) 30.03 (1017) ESE 23 (37)
22:00 4 October 24 (75 ) 20 (68 ) 30.06 (1018) ESE 18 (29)
23:00 4 October 24 (75 ) 20 (68 ) 30.06 (1018) ESE 21 (34)
The information presented here is taken from products produced by the U.S. National Weather Service and other national and international agencies. Landings.com does not present this as official information. Please refer to official weather briefings for flight critical information.


access provided by Dr. Guenther Eichhorn at aerobaticsweb.org